createdAt,value
2023-12-28T00:02:03.901Z,8.73
2023-12-28T00:05:06.174Z,7.80
2023-12-28T00:08:08.272Z,8.90
2023-12-28T00:11:10.600Z,11.23
2023-12-28T00:14:12.796Z,13.20
2023-12-28T00:17:15.328Z,12.32
2023-12-28T00:20:17.515Z,10.60
2023-12-28T00:23:21.211Z,7.80
2023-12-28T00:26:23.459Z,6.97
2023-12-28T00:29:39.697Z,8.23
2023-12-28T00:32:44.649Z,8.35
2023-12-28T00:35:46.951Z,6.13
2023-12-28T00:38:49.053Z,6.50
2023-12-28T00:41:51.346Z,5.35
2023-12-28T00:44:54.184Z,5.07
2023-12-28T00:47:58.507Z,5.75
2023-12-28T00:51:01.383Z,5.03
2023-12-28T00:54:03.520Z,5.77
2023-12-28T00:57:05.986Z,5.25
2023-12-28T01:00:08.471Z,4.53
2023-12-28T01:03:11.507Z,5.30
2023-12-28T01:06:14.000Z,4.10
2023-12-28T01:09:16.213Z,4.97
2023-12-28T01:12:19.001Z,5.35
2023-12-28T01:15:21.845Z,5.90
2023-12-28T01:18:24.547Z,4.70
2023-12-28T01:21:27.827Z,5.30
2023-12-28T01:24:30.148Z,5.13
2023-12-28T01:27:33.060Z,7.40
2023-12-28T01:30:35.689Z,4.93
2023-12-28T01:33:39.392Z,4.90
2023-12-28T01:36:45.401Z,5.63
2023-12-28T01:39:47.743Z,6.00
2023-12-28T01:42:50.061Z,7.03
2023-12-28T01:45:52.394Z,4.67
2023-12-28T01:48:54.957Z,5.63
2023-12-28T01:51:57.995Z,4.40
2023-12-28T01:55:00.353Z,5.17
2023-12-28T01:58:02.792Z,4.97
2023-12-28T02:01:05.414Z,4.43
2023-12-28T02:04:08.478Z,4.10
2023-12-28T02:07:11.915Z,3.83
2023-12-28T02:10:14.143Z,4.38
2023-12-28T02:13:16.277Z,2.10
2023-12-28T02:16:27.841Z,5.00
2023-12-28T02:19:41.218Z,5.18
2023-12-28T02:22:44.119Z,3.92
2023-12-28T02:25:46.234Z,4.03
2023-12-28T02:28:48.771Z,3.70
2023-12-28T02:31:54.876Z,2.55
2023-12-28T02:34:59.624Z,4.40
2023-12-28T02:38:11.484Z,3.38
2023-12-28T02:41:13.686Z,4.07
2023-12-28T02:44:15.854Z,6.18
2023-12-28T02:47:17.999Z,5.83
2023-12-28T02:50:20.119Z,3.67
2023-12-28T02:53:22.220Z,4.80
2023-12-28T02:56:24.365Z,3.50
2023-12-28T02:59:26.540Z,3.85
2023-12-28T03:02:28.804Z,3.95
2023-12-28T03:05:31.093Z,4.00
2023-12-28T03:08:33.331Z,4.25
2023-12-28T03:11:35.554Z,5.30
2023-12-28T03:14:37.698Z,4.32
2023-12-28T03:17:40.709Z,5.20
2023-12-28T03:20:42.860Z,3.75
2023-12-28T03:23:45.103Z,4.10
2023-12-28T03:26:47.224Z,3.97
2023-12-28T03:29:49.357Z,4.38
2023-12-28T03:32:51.841Z,3.95
2023-12-28T03:35:53.997Z,3.92
2023-12-28T03:38:56.055Z,3.97
2023-12-28T03:41:58.163Z,3.38
2023-12-28T03:45:00.414Z,3.88
2023-12-28T03:48:03.072Z,3.90
2023-12-28T03:51:05.807Z,4.47
2023-12-28T03:54:07.990Z,3.63
2023-12-28T03:57:10.230Z,2.57
2023-12-28T04:00:12.578Z,3.63
2023-12-28T04:03:17.713Z,4.75
2023-12-28T04:06:20.074Z,3.75
2023-12-28T04:09:22.287Z,3.85
2023-12-28T04:12:24.471Z,4.13
2023-12-28T04:15:29.683Z,3.58
2023-12-28T04:18:33.186Z,4.33
2023-12-28T04:21:35.406Z,3.92
2023-12-28T04:24:39.332Z,4.60
2023-12-28T04:27:42.419Z,4.53
2023-12-28T04:30:44.787Z,4.68
2023-12-28T04:33:47.350Z,5.10
2023-12-28T04:36:50.174Z,5.05
2023-12-28T04:39:52.435Z,4.82
2023-12-28T04:42:54.712Z,3.92
2023-12-28T04:45:57.025Z,3.58
2023-12-28T04:48:59.280Z,5.17
2023-12-28T04:52:01.639Z,4.00
2023-12-28T04:55:04.231Z,4.63
2023-12-28T04:58:06.473Z,3.90
2023-12-28T05:01:08.753Z,5.50
2023-12-28T05:04:14.477Z,4.68
2023-12-28T05:07:19.019Z,5.45
2023-12-28T05:10:21.381Z,9.48
2023-12-28T05:13:23.540Z,8.07
2023-12-28T05:16:25.738Z,7.10
2023-12-28T05:19:27.876Z,6.20
2023-12-28T05:22:30.025Z,4.30
2023-12-28T05:25:32.210Z,4.90
2023-12-28T05:28:34.381Z,4.93
2023-12-28T05:31:36.799Z,4.80
2023-12-28T05:34:39.064Z,7.20
2023-12-28T05:37:41.573Z,6.53
2023-12-28T05:40:45.652Z,4.32
2023-12-28T05:43:47.760Z,4.38
2023-12-28T05:46:49.885Z,4.53
2023-12-28T05:49:52.976Z,5.17
2023-12-28T05:52:56.195Z,4.13
2023-12-28T05:55:58.356Z,4.63
2023-12-28T05:59:00.543Z,6.17
2023-12-28T06:02:02.731Z,5.00
2023-12-28T06:05:05.470Z,4.32
2023-12-28T06:08:07.776Z,4.72
2023-12-28T06:11:10.143Z,3.05
2023-12-28T06:14:12.504Z,5.30
2023-12-28T06:17:16.555Z,6.05
2023-12-28T06:20:18.663Z,2.87
2023-12-28T06:23:20.765Z,4.43
2023-12-28T06:26:22.928Z,4.35
2023-12-28T06:29:25.103Z,4.33
2023-12-28T06:32:28.743Z,4.80
2023-12-28T06:35:30.992Z,3.25
2023-12-28T06:38:34.259Z,3.45
2023-12-28T06:41:36.369Z,3.95
2023-12-28T06:44:38.489Z,5.45
2023-12-28T06:47:40.689Z,5.05
2023-12-28T06:50:42.795Z,3.70
2023-12-28T06:53:45.784Z,5.80
2023-12-28T06:56:47.951Z,5.03
2023-12-28T06:59:50.146Z,3.77
2023-12-28T07:02:52.504Z,4.63
2023-12-28T07:05:54.728Z,5.68
2023-12-28T07:08:56.821Z,6.00
2023-12-28T07:11:59.008Z,3.97
2023-12-28T07:15:01.099Z,4.88
2023-12-28T07:18:03.543Z,5.13
2023-12-28T07:21:07.221Z,6.50
2023-12-28T07:24:09.356Z,5.72
2023-12-28T07:27:11.400Z,6.32
2023-12-28T07:30:13.875Z,6.63
2023-12-28T07:33:16.121Z,5.30
2023-12-28T07:36:18.547Z,4.75
2023-12-28T07:39:20.690Z,3.75
2023-12-28T07:42:22.923Z,5.13
2023-12-28T07:45:25.892Z,4.80
2023-12-28T07:48:28.551Z,4.65
2023-12-28T07:51:30.830Z,6.23
2023-12-28T07:54:33.080Z,5.22
2023-12-28T07:57:35.852Z,6.15
2023-12-28T08:00:38.015Z,5.33
2023-12-28T08:03:40.263Z,5.50
2023-12-28T08:06:42.512Z,5.72
2023-12-28T08:09:45.792Z,5.32
2023-12-28T08:12:48.060Z,6.68
2023-12-28T08:15:50.304Z,5.05
2023-12-28T08:18:52.630Z,5.82
2023-12-28T08:21:54.900Z,5.97
2023-12-28T08:24:58.801Z,8.32
2023-12-28T08:28:01.246Z,10.20
2023-12-28T08:31:03.864Z,7.50
2023-12-28T08:34:06.180Z,7.90
2023-12-28T08:37:08.352Z,6.65
2023-12-28T08:40:10.805Z,6.57
2023-12-28T08:43:13.330Z,4.03
2023-12-28T08:46:18.858Z,4.53
2023-12-28T08:49:21.225Z,3.03
2023-12-28T08:52:23.734Z,5.27
2023-12-28T08:55:25.978Z,4.80
2023-12-28T08:58:28.141Z,4.15
2023-12-28T09:01:33.218Z,6.37
2023-12-28T09:04:35.550Z,5.07
2023-12-28T09:07:43.686Z,5.70
2023-12-28T09:10:45.757Z,7.20
2023-12-28T09:13:47.850Z,4.15
2023-12-28T09:16:50.003Z,4.78
2023-12-28T09:19:52.322Z,4.65
2023-12-28T09:22:57.219Z,3.87
2023-12-28T09:25:59.955Z,4.53
2023-12-28T09:29:02.176Z,5.05
2023-12-28T09:32:04.337Z,6.03
2023-12-28T09:35:06.653Z,6.22
2023-12-28T09:38:09.405Z,19.05
2023-12-28T09:41:18.726Z,5.47
2023-12-28T09:44:21.438Z,8.32
2023-12-28T09:47:23.571Z,5.43
2023-12-28T09:50:27.733Z,11.65
2023-12-28T09:53:30.535Z,3.30
2023-12-28T09:56:36.181Z,4.13
2023-12-28T09:59:39.117Z,2.90
2023-12-28T10:02:41.721Z,3.70
2023-12-28T10:05:44.853Z,3.90
2023-12-28T10:08:49.063Z,4.32
2023-12-28T10:11:51.433Z,4.88
2023-12-28T10:14:53.501Z,4.72
2023-12-28T10:17:55.736Z,3.30
2023-12-28T10:20:58.010Z,3.75
2023-12-28T10:24:00.094Z,3.97
2023-12-28T10:27:02.635Z,4.18
2023-12-28T10:30:05.099Z,2.55
2023-12-28T10:33:07.857Z,3.57
2023-12-28T10:36:11.303Z,3.45
2023-12-28T10:39:17.573Z,4.80
2023-12-28T10:42:28.823Z,2.65
2023-12-28T10:45:32.808Z,4.45
2023-12-28T10:48:38.056Z,3.47
2023-12-28T10:51:42.347Z,3.47
2023-12-28T10:55:04.461Z,3.80
2023-12-28T10:58:11.802Z,3.83
2023-12-28T11:01:16.197Z,3.17
2023-12-28T11:04:24.365Z,3.00
2023-12-28T11:07:33.484Z,3.45
2023-12-28T11:10:36.190Z,4.05
2023-12-28T11:13:38.677Z,3.38
2023-12-28T11:16:41.360Z,2.08
2023-12-28T11:19:44.176Z,4.40
2023-12-28T11:22:46.488Z,4.03
2023-12-28T11:25:48.698Z,3.40
2023-12-28T11:28:51.039Z,4.30
2023-12-28T11:31:58.894Z,3.65
2023-12-28T11:35:01.231Z,4.37
2023-12-28T11:38:07.501Z,4.90
2023-12-28T11:41:09.622Z,3.67
2023-12-28T11:44:12.142Z,3.55
2023-12-28T11:47:14.486Z,5.40
2023-12-28T11:50:16.770Z,3.83
2023-12-28T11:53:19.282Z,3.97
2023-12-28T11:56:21.437Z,5.03
2023-12-28T11:59:23.545Z,4.70
2023-12-28T12:02:25.866Z,5.90
2023-12-28T12:05:28.553Z,5.33
2023-12-28T12:08:31.112Z,5.15
2023-12-28T12:11:33.276Z,4.57
2023-12-28T12:14:35.686Z,3.38
2023-12-28T12:17:37.877Z,4.50
2023-12-28T12:20:40.799Z,3.35
2023-12-28T12:23:43.758Z,2.97
2023-12-28T12:26:46.856Z,3.10
2023-12-28T12:29:49.136Z,3.28
2023-12-28T12:32:51.539Z,4.38
2023-12-28T12:35:53.981Z,4.40
2023-12-28T12:38:57.093Z,4.45
2023-12-28T12:41:59.269Z,5.38
2023-12-28T12:45:02.051Z,4.35
2023-12-28T12:48:05.501Z,4.00
2023-12-28T12:51:07.990Z,3.30
2023-12-28T12:54:10.542Z,4.97
2023-12-28T12:57:12.660Z,5.30
2023-12-28T13:00:14.915Z,3.83
2023-12-28T13:03:18.424Z,4.18
2023-12-28T13:06:24.047Z,3.83
2023-12-28T13:09:26.449Z,4.32
2023-12-28T13:12:28.767Z,4.07
2023-12-28T13:15:30.927Z,6.32
2023-12-28T13:18:36.367Z,3.58
2023-12-28T13:21:38.769Z,4.68
2023-12-28T13:24:41.011Z,5.00
2023-12-28T13:27:43.361Z,5.03
2023-12-28T13:30:45.630Z,4.28
2023-12-28T13:33:48.545Z,3.40
2023-12-28T13:36:50.932Z,3.50
2023-12-28T13:39:53.172Z,4.95
2023-12-28T13:42:55.486Z,3.63
2023-12-28T13:45:57.798Z,6.07
2023-12-28T13:49:00.102Z,3.75
2023-12-28T13:52:02.563Z,4.78
2023-12-28T13:55:05.056Z,4.18
2023-12-28T13:58:07.354Z,4.33
2023-12-28T14:01:10.526Z,3.75
2023-12-28T14:04:12.872Z,4.78
2023-12-28T14:07:15.120Z,4.97
2023-12-28T14:10:17.355Z,5.30
2023-12-28T14:13:20.927Z,4.75
2023-12-28T14:16:23.110Z,4.53
2023-12-28T14:19:25.612Z,4.50
2023-12-28T14:22:27.944Z,5.10
2023-12-28T14:25:31.688Z,4.93
2023-12-28T14:28:35.060Z,4.67
2023-12-28T14:31:37.495Z,5.50
2023-12-28T14:34:39.847Z,4.88
2023-12-28T14:37:41.943Z,4.50
2023-12-28T14:40:44.126Z,5.10
2023-12-28T14:43:46.348Z,5.05
2023-12-28T14:46:48.576Z,5.00
2023-12-28T14:49:51.589Z,4.22
2023-12-28T14:52:53.928Z,4.88
2023-12-28T14:55:55.985Z,4.70
2023-12-28T14:58:58.318Z,5.20
2023-12-28T15:02:00.610Z,7.20
2023-12-28T15:05:02.943Z,12.07
2023-12-28T15:08:05.553Z,6.60
2023-12-28T15:11:11.164Z,7.47
2023-12-28T15:14:13.456Z,8.02
2023-12-28T15:17:15.893Z,9.60
2023-12-28T15:20:18.313Z,8.98
2023-12-28T15:23:21.652Z,8.65
2023-12-28T15:26:23.999Z,7.18
2023-12-28T15:29:26.787Z,8.77
2023-12-28T15:32:29.004Z,10.43
2023-12-28T15:35:31.211Z,13.77
2023-12-28T15:38:33.455Z,17.57
2023-12-28T15:41:35.584Z,21.13
2023-12-28T15:44:37.758Z,21.10
2023-12-28T15:47:39.977Z,24.50
2023-12-28T15:50:42.215Z,24.85
2023-12-28T15:53:44.355Z,21.65
2023-12-28T15:56:46.462Z,20.20
2023-12-28T15:59:48.554Z,17.73
2023-12-28T16:02:51.112Z,15.20
2023-12-28T16:05:53.335Z,20.73
2023-12-28T16:08:55.522Z,16.70
2023-12-28T16:11:57.774Z,17.92
2023-12-28T16:15:00.002Z,17.77
2023-12-28T16:18:02.505Z,19.13
2023-12-28T16:21:05.000Z,17.50
2023-12-28T16:24:07.250Z,15.73
2023-12-28T16:27:09.582Z,20.45
2023-12-28T16:30:12.002Z,18.83
2023-12-28T16:33:14.925Z,25.02
2023-12-28T16:36:17.149Z,30.27
2023-12-28T16:39:19.383Z,23.73
2023-12-28T16:42:21.673Z,26.48
2023-12-28T16:45:24.324Z,20.25
2023-12-28T16:48:26.660Z,13.00
2023-12-28T16:51:28.886Z,15.27
2023-12-28T16:54:31.085Z,13.65
2023-12-28T16:57:33.282Z,9.95
2023-12-28T17:00:37.675Z,11.27
2023-12-28T17:03:40.153Z,10.27
2023-12-28T17:06:42.612Z,12.77
2023-12-28T17:09:45.538Z,11.77
2023-12-28T17:12:49.293Z,9.23
2023-12-28T17:15:53.332Z,9.90
2023-12-28T17:18:55.970Z,11.35
2023-12-28T17:21:59.244Z,11.60
2023-12-28T17:25:08.940Z,8.65
2023-12-28T17:28:16.658Z,7.05
2023-12-28T17:31:19.736Z,10.67
2023-12-28T17:34:22.063Z,9.32
2023-12-28T17:37:24.438Z,8.90
2023-12-28T17:40:26.823Z,8.77
2023-12-28T17:43:38.596Z,9.20
2023-12-28T17:46:48.385Z,10.25
2023-12-28T17:49:50.750Z,10.30
2023-12-28T17:52:53.131Z,8.93
2023-12-28T17:55:56.009Z,9.43
2023-12-28T17:58:58.151Z,7.85
2023-12-28T18:02:01.022Z,9.50
2023-12-28T18:05:03.511Z,8.77
2023-12-28T18:08:06.222Z,10.65
2023-12-28T18:11:09.000Z,10.83
2023-12-28T18:14:11.148Z,9.65
2023-12-28T18:17:13.428Z,9.18
2023-12-28T18:20:15.802Z,9.35
2023-12-28T18:23:18.381Z,9.18
2023-12-28T18:26:20.555Z,9.93
2023-12-28T18:29:22.747Z,12.05
2023-12-28T18:32:25.072Z,19.63
2023-12-28T18:35:27.280Z,19.50
2023-12-28T18:38:29.401Z,24.42
2023-12-28T18:41:31.575Z,27.03
2023-12-28T18:44:35.468Z,26.95
2023-12-28T18:47:37.723Z,26.60
2023-12-28T18:50:43.043Z,23.85
2023-12-28T18:53:47.767Z,18.77
2023-12-28T18:56:50.120Z,16.23
2023-12-28T18:59:52.418Z,16.17
2023-12-28T19:02:54.717Z,18.37
2023-12-28T19:05:56.862Z,19.15
2023-12-28T19:09:00.650Z,19.90
2023-12-28T19:12:03.769Z,20.77
2023-12-28T19:15:06.123Z,20.73
2023-12-28T19:18:08.318Z,19.10
2023-12-28T19:21:11.026Z,15.10
2023-12-28T19:24:13.441Z,16.63
2023-12-28T19:27:17.066Z,17.20
2023-12-28T19:30:19.326Z,18.23
2023-12-28T19:33:21.694Z,14.50
2023-12-28T19:36:23.936Z,14.15
2023-12-28T19:39:26.284Z,11.90
2023-12-28T19:42:28.733Z,11.83
2023-12-28T19:45:31.618Z,11.63
2023-12-28T19:48:34.039Z,21.42
2023-12-28T19:51:36.534Z,26.60
2023-12-28T19:54:38.877Z,20.08
2023-12-28T19:57:42.738Z,26.45
2023-12-28T20:00:45.509Z,36.97
2023-12-28T20:03:47.917Z,27.77
2023-12-28T20:06:50.866Z,23.63
2023-12-28T20:09:53.134Z,15.63
2023-12-28T20:12:55.356Z,17.37
2023-12-28T20:15:57.621Z,18.27
2023-12-28T20:19:03.019Z,18.23
2023-12-28T20:22:05.311Z,18.00
2023-12-28T20:25:07.716Z,18.10
2023-12-28T20:28:10.037Z,21.95
2023-12-28T20:31:12.267Z,22.50
2023-12-28T20:34:14.592Z,17.50
2023-12-28T20:37:16.824Z,17.83
2023-12-28T20:40:18.949Z,20.92
2023-12-28T20:43:21.193Z,25.43
2023-12-28T20:46:23.587Z,29.52
2023-12-28T20:49:34.653Z,33.97
2023-12-28T20:52:45.122Z,30.52
2023-12-28T20:55:47.344Z,21.85
2023-12-28T20:58:49.717Z,25.27
2023-12-28T21:01:51.909Z,26.33
2023-12-28T21:04:54.391Z,27.33
2023-12-28T21:07:56.687Z,29.13
2023-12-28T21:10:59.243Z,23.90
2023-12-28T21:14:05.823Z,24.87
2023-12-28T21:17:08.171Z,25.80
2023-12-28T21:20:11.072Z,20.38
2023-12-28T21:23:13.357Z,21.77
2023-12-28T21:26:15.636Z,27.92
2023-12-28T21:29:18.307Z,24.75
2023-12-28T21:32:20.588Z,20.55
2023-12-28T21:35:23.017Z,21.57
2023-12-28T21:38:25.166Z,15.32
2023-12-28T21:41:27.285Z,17.42
2023-12-28T21:44:30.231Z,17.17
2023-12-28T21:47:32.418Z,17.77
2023-12-28T21:50:34.525Z,18.45
2023-12-28T21:53:36.646Z,16.17
2023-12-28T21:56:39.986Z,14.75
2023-12-28T21:59:42.552Z,19.75
2023-12-28T22:02:44.633Z,18.48
2023-12-28T22:05:46.820Z,22.87
2023-12-28T22:08:48.995Z,23.23
2023-12-28T22:11:51.980Z,20.85
2023-12-28T22:14:54.064Z,20.70
2023-12-28T22:17:56.206Z,20.80
2023-12-28T22:20:58.400Z,24.75
2023-12-28T22:24:00.518Z,24.17
2023-12-28T22:27:02.690Z,23.70
2023-12-28T22:30:05.108Z,22.05
2023-12-28T22:33:07.726Z,20.98
2023-12-28T22:36:10.017Z,21.53
2023-12-28T22:39:12.300Z,22.20
2023-12-28T22:42:14.456Z,21.08
2023-12-28T22:45:16.561Z,22.33
2023-12-28T22:48:19.717Z,21.40
2023-12-28T22:51:21.933Z,22.08
2023-12-28T22:54:24.424Z,21.23
2023-12-28T22:57:26.661Z,23.13
2023-12-28T23:00:36.089Z,25.35
2023-12-28T23:03:38.444Z,22.92
2023-12-28T23:06:40.678Z,22.50
2023-12-28T23:09:42.872Z,22.98
2023-12-28T23:12:45.101Z,22.42
2023-12-28T23:15:47.268Z,24.73
2023-12-28T23:18:49.575Z,21.58
2023-12-28T23:21:51.846Z,23.80
2023-12-28T23:24:54.104Z,26.73
2023-12-28T23:27:56.339Z,22.52
2023-12-28T23:30:58.525Z,20.92
2023-12-28T23:34:01.020Z,24.30
2023-12-28T23:37:03.459Z,22.83
2023-12-28T23:40:06.808Z,22.55
2023-12-28T23:43:09.264Z,24.38
2023-12-28T23:46:11.985Z,26.30
2023-12-28T23:49:14.314Z,22.52
2023-12-28T23:52:16.568Z,22.63
2023-12-28T23:55:18.733Z,21.10
2023-12-28T23:58:20.922Z,18.02
